sensor_id;sensor_type;location;lat;lon;timestamp;P1;durP1;ratioP1;P2;durP2;ratioP2
21564;SDS011;10943;48.738;9.320;2022-10-22T00:01:02;8.02;;;2.22;;
21564;SDS011;10943;48.738;9.320;2022-10-22T00:03:30;9.60;;;2.10;;
21564;SDS011;10943;48.738;9.320;2022-10-22T00:05:58;5.72;;;2.08;;
21564;SDS011;10943;48.738;9.320;2022-10-22T00:08:26;6.07;;;1.98;;
21564;SDS011;10943;48.738;9.320;2022-10-22T00:10:53;4.63;;;1.50;;
21564;SDS011;10943;48.738;9.320;2022-10-22T00:13:20;7.22;;;1.95;;
21564;SDS011;10943;48.738;9.320;2022-10-22T00:15:48;5.35;;;1.42;;
21564;SDS011;10943;48.738;9.320;2022-10-22T00:18:15;8.18;;;1.95;;
21564;SDS011;10943;48.738;9.320;2022-10-22T00:20:42;6.35;;;1.90;;
21564;SDS011;10943;48.738;9.320;2022-10-22T00:23:10;5.65;;;1.88;;
21564;SDS011;10943;48.738;9.320;2022-10-22T00:25:37;6.47;;;2.20;;
21564;SDS011;10943;48.738;9.320;2022-10-22T00:28:05;7.70;;;2.35;;
21564;SDS011;10943;48.738;9.320;2022-10-22T00:30:32;3.97;;;1.60;;
21564;SDS011;10943;48.738;9.320;2022-10-22T00:32:59;6.88;;;1.60;;
21564;SDS011;10943;48.738;9.320;2022-10-22T00:35:26;7.07;;;1.70;;
21564;SDS011;10943;48.738;9.320;2022-10-22T00:37:53;6.80;;;1.95;;
21564;SDS011;10943;48.738;9.320;2022-10-22T00:40:21;6.20;;;1.90;;
21564;SDS011;10943;48.738;9.320;2022-10-22T00:42:48;7.47;;;2.22;;
21564;SDS011;10943;48.738;9.320;2022-10-22T00:45:17;7.25;;;1.90;;
21564;SDS011;10943;48.738;9.320;2022-10-22T00:52:59;6.20;;;1.70;;
21564;SDS011;10943;48.738;9.320;2022-10-22T00:55:29;4.45;;;1.67;;
21564;SDS011;10943;48.738;9.320;2022-10-22T00:57:58;5.18;;;1.60;;
21564;SDS011;10943;48.738;9.320;2022-10-22T01:00:27;5.38;;;1.80;;
21564;SDS011;10943;48.738;9.320;2022-10-22T01:02:55;6.07;;;1.88;;
21564;SDS011;10943;48.738;9.320;2022-10-22T01:05:28;5.63;;;1.90;;
21564;SDS011;10943;48.738;9.320;2022-10-22T01:08:05;3.90;;;1.73;;
21564;SDS011;10943;48.738;9.320;2022-10-22T01:17:07;4.75;;;2.10;;
21564;SDS011;10943;48.738;9.320;2022-10-22T01:22:47;6.32;;;2.40;;
21564;SDS011;10943;48.738;9.320;2022-10-22T01:26:04;6.05;;;2.50;;
21564;SDS011;10943;48.738;9.320;2022-10-22T01:31:44;6.20;;;2.47;;
21564;SDS011;10943;48.738;9.320;2022-10-22T01:34:22;7.10;;;2.92;;
21564;SDS011;10943;48.738;9.320;2022-10-22T01:36:52;8.98;;;3.50;;
21564;SDS011;10943;48.738;9.320;2022-10-22T01:39:22;8.88;;;3.20;;
21564;SDS011;10943;48.738;9.320;2022-10-22T01:41:54;6.47;;;2.60;;
21564;SDS011;10943;48.738;9.320;2022-10-22T02:05:48;6.07;;;2.15;;
21564;SDS011;10943;48.738;9.320;2022-10-22T02:08:26;6.30;;;2.10;;
21564;SDS011;10943;48.738;9.320;2022-10-22T02:10:59;5.88;;;1.90;;
21564;SDS011;10943;48.738;9.320;2022-10-22T02:13:39;6.95;;;1.90;;
21564;SDS011;10943;48.738;9.320;2022-10-22T02:16:15;5.18;;;1.83;;
21564;SDS011;10943;48.738;9.320;2022-10-22T02:18:53;7.50;;;2.20;;
21564;SDS011;10943;48.738;9.320;2022-10-22T02:21:28;7.43;;;2.15;;
21564;SDS011;10943;48.738;9.320;2022-10-22T02:23:56;5.45;;;1.60;;
21564;SDS011;10943;48.738;9.320;2022-10-22T02:26:27;5.85;;;2.00;;
21564;SDS011;10943;48.738;9.320;2022-10-22T02:29:39;6.05;;;2.10;;
21564;SDS011;10943;48.738;9.320;2022-10-22T02:32:19;11.15;;;2.25;;
21564;SDS011;10943;48.738;9.320;2022-10-22T02:34:53;6.20;;;1.80;;
21564;SDS011;10943;48.738;9.320;2022-10-22T02:37:22;5.03;;;1.65;;
21564;SDS011;10943;48.738;9.320;2022-10-22T02:39:53;8.05;;;1.63;;
21564;SDS011;10943;48.738;9.320;2022-10-22T02:42:23;6.75;;;1.75;;
21564;SDS011;10943;48.738;9.320;2022-10-22T02:44:51;6.30;;;1.50;;
21564;SDS011;10943;48.738;9.320;2022-10-22T02:47:19;5.97;;;1.83;;
21564;SDS011;10943;48.738;9.320;2022-10-22T02:49:46;5.78;;;1.75;;
21564;SDS011;10943;48.738;9.320;2022-10-22T02:52:13;5.90;;;1.75;;
21564;SDS011;10943;48.738;9.320;2022-10-22T02:54:41;3.35;;;1.40;;
21564;SDS011;10943;48.738;9.320;2022-10-22T02:57:09;5.70;;;1.75;;
21564;SDS011;10943;48.738;9.320;2022-10-22T02:59:36;8.90;;;1.67;;
21564;SDS011;10943;48.738;9.320;2022-10-22T03:04:56;4.82;;;1.50;;
21564;SDS011;10943;48.738;9.320;2022-10-22T03:07:24;5.25;;;1.50;;
21564;SDS011;10943;48.738;9.320;2022-10-22T03:09:51;5.88;;;1.27;;
21564;SDS011;10943;48.738;9.320;2022-10-22T03:12:18;4.00;;;1.50;;
21564;SDS011;10943;48.738;9.320;2022-10-22T03:14:45;3.60;;;1.35;;
21564;SDS011;10943;48.738;9.320;2022-10-22T03:17:13;4.10;;;1.30;;
21564;SDS011;10943;48.738;9.320;2022-10-22T03:19:40;5.13;;;1.17;;
21564;SDS011;10943;48.738;9.320;2022-10-22T03:22:18;4.85;;;0.88;;
21564;SDS011;10943;48.738;9.320;2022-10-22T03:24:53;3.50;;;1.02;;
21564;SDS011;10943;48.738;9.320;2022-10-22T03:27:27;5.43;;;1.08;;
21564;SDS011;10943;48.738;9.320;2022-10-22T03:29:56;3.97;;;1.10;;
21564;SDS011;10943;48.738;9.320;2022-10-22T03:32:25;5.25;;;1.08;;
21564;SDS011;10943;48.738;9.320;2022-10-22T03:34:52;4.47;;;1.00;;
21564;SDS011;10943;48.738;9.320;2022-10-22T03:37:19;2.92;;;1.10;;
21564;SDS011;10943;48.738;9.320;2022-10-22T03:39:48;4.22;;;1.02;;
21564;SDS011;10943;48.738;9.320;2022-10-22T03:42:16;6.23;;;1.07;;
21564;SDS011;10943;48.738;9.320;2022-10-22T03:44:43;3.55;;;1.05;;
21564;SDS011;10943;48.738;9.320;2022-10-22T03:47:10;4.03;;;1.13;;
21564;SDS011;10943;48.738;9.320;2022-10-22T03:49:38;3.75;;;1.13;;
21564;SDS011;10943;48.738;9.320;2022-10-22T03:52:06;5.07;;;1.15;;
21564;SDS011;10943;48.738;9.320;2022-10-22T03:54:37;4.03;;;1.23;;
21564;SDS011;10943;48.738;9.320;2022-10-22T03:57:07;3.30;;;1.10;;
21564;SDS011;10943;48.738;9.320;2022-10-22T03:59:37;3.30;;;1.20;;
21564;SDS011;10943;48.738;9.320;2022-10-22T04:02:08;3.35;;;1.02;;
21564;SDS011;10943;48.738;9.320;2022-10-22T04:04:38;3.50;;;0.95;;
21564;SDS011;10943;48.738;9.320;2022-10-22T04:07:06;3.90;;;1.05;;
21564;SDS011;10943;48.738;9.320;2022-10-22T04:09:37;5.15;;;1.10;;
21564;SDS011;10943;48.738;9.320;2022-10-22T04:12:04;5.75;;;1.00;;
21564;SDS011;10943;48.738;9.320;2022-10-22T04:14:33;4.18;;;1.20;;
21564;SDS011;10943;48.738;9.320;2022-10-22T04:17:00;5.15;;;1.35;;
21564;SDS011;10943;48.738;9.320;2022-10-22T04:19:28;5.25;;;1.13;;
21564;SDS011;10943;48.738;9.320;2022-10-22T04:21:58;5.28;;;1.08;;
21564;SDS011;10943;48.738;9.320;2022-10-22T04:24:26;2.40;;;1.00;;
21564;SDS011;10943;48.738;9.320;2022-10-22T04:26:56;5.03;;;1.27;;
21564;SDS011;10943;48.738;9.320;2022-10-22T04:29:24;3.88;;;1.15;;
21564;SDS011;10943;48.738;9.320;2022-10-22T04:31:52;4.20;;;1.45;;
21564;SDS011;10943;48.738;9.320;2022-10-22T04:34:19;4.72;;;1.35;;
21564;SDS011;10943;48.738;9.320;2022-10-22T04:36:53;5.07;;;1.20;;
21564;SDS011;10943;48.738;9.320;2022-10-22T04:39:20;5.78;;;1.30;;
21564;SDS011;10943;48.738;9.320;2022-10-22T04:41:48;3.58;;;1.20;;
21564;SDS011;10943;48.738;9.320;2022-10-22T04:44:15;4.25;;;1.20;;
21564;SDS011;10943;48.738;9.320;2022-10-22T04:46:44;3.22;;;0.98;;
21564;SDS011;10943;48.738;9.320;2022-10-22T04:49:11;4.80;;;0.90;;
21564;SDS011;10943;48.738;9.320;2022-10-22T04:51:39;3.90;;;1.10;;
21564;SDS011;10943;48.738;9.320;2022-10-22T04:54:09;5.05;;;1.50;;
21564;SDS011;10943;48.738;9.320;2022-10-22T04:56:37;4.80;;;2.00;;
21564;SDS011;10943;48.738;9.320;2022-10-22T04:59:06;7.50;;;2.00;;
21564;SDS011;10943;48.738;9.320;2022-10-22T05:01:39;4.68;;;1.85;;
21564;SDS011;10943;48.738;9.320;2022-10-22T05:04:11;4.05;;;1.95;;
21564;SDS011;10943;48.738;9.320;2022-10-22T05:06:42;5.10;;;1.65;;
21564;SDS011;10943;48.738;9.320;2022-10-22T05:09:12;4.88;;;2.03;;
21564;SDS011;10943;48.738;9.320;2022-10-22T05:11:47;6.47;;;2.20;;
21564;SDS011;10943;48.738;9.320;2022-10-22T05:14:22;5.78;;;2.20;;
21564;SDS011;10943;48.738;9.320;2022-10-22T05:16:50;6.97;;;2.10;;
21564;SDS011;10943;48.738;9.320;2022-10-22T05:19:25;3.97;;;2.03;;
21564;SDS011;10943;48.738;9.320;2022-10-22T05:21:57;10.15;;;2.40;;
21564;SDS011;10943;48.738;9.320;2022-10-22T05:24:32;6.57;;;2.80;;
21564;SDS011;10943;48.738;9.320;2022-10-22T05:27:02;10.23;;;2.92;;
21564;SDS011;10943;48.738;9.320;2022-10-22T05:29:29;7.38;;;2.45;;
21564;SDS011;10943;48.738;9.320;2022-10-22T05:31:57;8.75;;;2.90;;
21564;SDS011;10943;48.738;9.320;2022-10-22T05:34:24;7.78;;;2.60;;
21564;SDS011;10943;48.738;9.320;2022-10-22T05:36:52;7.18;;;2.85;;
21564;SDS011;10943;48.738;9.320;2022-10-22T05:39:20;7.38;;;2.60;;
21564;SDS011;10943;48.738;9.320;2022-10-22T05:41:47;6.53;;;3.00;;
21564;SDS011;10943;48.738;9.320;2022-10-22T05:44:14;6.60;;;3.20;;
21564;SDS011;10943;48.738;9.320;2022-10-22T05:46:41;8.63;;;3.10;;
21564;SDS011;10943;48.738;9.320;2022-10-22T05:49:13;8.70;;;2.95;;
21564;SDS011;10943;48.738;9.320;2022-10-22T05:51:41;6.38;;;3.17;;
21564;SDS011;10943;48.738;9.320;2022-10-22T05:54:10;9.35;;;3.13;;
21564;SDS011;10943;48.738;9.320;2022-10-22T05:56:46;6.63;;;2.70;;
21564;SDS011;10943;48.738;9.320;2022-10-22T05:59:14;7.32;;;3.20;;
21564;SDS011;10943;48.738;9.320;2022-10-22T06:01:42;10.35;;;3.60;;
21564;SDS011;10943;48.738;9.320;2022-10-22T06:04:10;11.05;;;3.97;;
21564;SDS011;10943;48.738;9.320;2022-10-22T06:06:40;7.22;;;3.10;;
21564;SDS011;10943;48.738;9.320;2022-10-22T06:12:06;12.40;;;3.30;;
21564;SDS011;10943;48.738;9.320;2022-10-22T06:14:36;10.00;;;2.80;;
21564;SDS011;10943;48.738;9.320;2022-10-22T06:17:03;6.00;;;2.95;;
21564;SDS011;10943;48.738;9.320;2022-10-22T06:19:30;10.50;;;3.88;;
21564;SDS011;10943;48.738;9.320;2022-10-22T06:21:57;8.65;;;3.30;;
21564;SDS011;10943;48.738;9.320;2022-10-22T06:24:25;8.45;;;3.13;;
21564;SDS011;10943;48.738;9.320;2022-10-22T06:26:52;9.77;;;4.22;;
21564;SDS011;10943;48.738;9.320;2022-10-22T06:29:19;8.25;;;3.92;;
21564;SDS011;10943;48.738;9.320;2022-10-22T06:31:47;7.93;;;3.50;;
21564;SDS011;10943;48.738;9.320;2022-10-22T06:34:15;8.27;;;3.47;;
21564;SDS011;10943;48.738;9.320;2022-10-22T06:36:52;8.38;;;4.07;;
21564;SDS011;10943;48.738;9.320;2022-10-22T06:39:20;11.73;;;3.92;;
21564;SDS011;10943;48.738;9.320;2022-10-22T06:41:47;10.98;;;3.55;;
21564;SDS011;10943;48.738;9.320;2022-10-22T06:44:16;6.70;;;3.30;;
21564;SDS011;10943;48.738;9.320;2022-10-22T06:46:48;12.63;;;4.28;;
21564;SDS011;10943;48.738;9.320;2022-10-22T06:49:20;9.27;;;4.10;;
21564;SDS011;10943;48.738;9.320;2022-10-22T06:51:53;10.13;;;4.05;;
21564;SDS011;10943;48.738;9.320;2022-10-22T06:54:28;8.32;;;3.83;;
21564;SDS011;10943;48.738;9.320;2022-10-22T06:56:55;11.00;;;4.43;;
21564;SDS011;10943;48.738;9.320;2022-10-22T06:59:22;7.72;;;3.97;;
21564;SDS011;10943;48.738;9.320;2022-10-22T07:01:50;10.98;;;4.13;;
21564;SDS011;10943;48.738;9.320;2022-10-22T07:04:17;11.48;;;4.13;;
21564;SDS011;10943;48.738;9.320;2022-10-22T07:06:44;13.40;;;5.30;;
21564;SDS011;10943;48.738;9.320;2022-10-22T07:09:12;8.57;;;4.20;;
21564;SDS011;10943;48.738;9.320;2022-10-22T07:11:40;7.95;;;3.70;;
21564;SDS011;10943;48.738;9.320;2022-10-22T07:14:11;8.65;;;3.50;;
21564;SDS011;10943;48.738;9.320;2022-10-22T07:16:39;8.40;;;4.00;;
21564;SDS011;10943;48.738;9.320;2022-10-22T07:19:11;7.43;;;3.53;;
21564;SDS011;10943;48.738;9.320;2022-10-22T07:21:39;7.70;;;3.33;;
21564;SDS011;10943;48.738;9.320;2022-10-22T07:24:12;7.43;;;4.13;;
21564;SDS011;10943;48.738;9.320;2022-10-22T07:26:40;7.90;;;3.70;;
21564;SDS011;10943;48.738;9.320;2022-10-22T07:29:08;6.72;;;4.30;;
21564;SDS011;10943;48.738;9.320;2022-10-22T07:31:35;13.85;;;4.05;;
21564;SDS011;10943;48.738;9.320;2022-10-22T07:34:02;11.30;;;4.70;;
21564;SDS011;10943;48.738;9.320;2022-10-22T07:36:29;7.13;;;3.60;;
21564;SDS011;10943;48.738;9.320;2022-10-22T07:38:57;5.57;;;3.75;;
21564;SDS011;10943;48.738;9.320;2022-10-22T07:41:27;7.93;;;4.60;;
21564;SDS011;10943;48.738;9.320;2022-10-22T07:43:56;10.73;;;4.45;;
21564;SDS011;10943;48.738;9.320;2022-10-22T07:46:24;8.40;;;3.22;;
21564;SDS011;10943;48.738;9.320;2022-10-22T07:48:53;6.07;;;3.30;;
21564;SDS011;10943;48.738;9.320;2022-10-22T07:51:20;6.22;;;3.30;;
21564;SDS011;10943;48.738;9.320;2022-10-22T07:53:48;7.18;;;2.17;;
21564;SDS011;10943;48.738;9.320;2022-10-22T07:56:15;8.70;;;2.65;;
21564;SDS011;10943;48.738;9.320;2022-10-22T07:58:43;5.07;;;2.78;;
21564;SDS011;10943;48.738;9.320;2022-10-22T08:01:10;4.60;;;2.10;;
21564;SDS011;10943;48.738;9.320;2022-10-22T08:03:38;5.28;;;2.55;;
21564;SDS011;10943;48.738;9.320;2022-10-22T08:06:05;5.53;;;3.10;;
21564;SDS011;10943;48.738;9.320;2022-10-22T08:08:34;6.20;;;3.10;;
21564;SDS011;10943;48.738;9.320;2022-10-22T08:11:01;8.38;;;3.30;;
21564;SDS011;10943;48.738;9.320;2022-10-22T08:13:28;5.93;;;2.92;;
21564;SDS011;10943;48.738;9.320;2022-10-22T08:15:57;7.35;;;3.00;;
21564;SDS011;10943;48.738;9.320;2022-10-22T08:18:27;12.07;;;2.55;;
21564;SDS011;10943;48.738;9.320;2022-10-22T08:20:55;6.97;;;2.30;;
21564;SDS011;10943;48.738;9.320;2022-10-22T08:23:23;4.78;;;2.72;;
21564;SDS011;10943;48.738;9.320;2022-10-22T08:25:54;6.25;;;1.80;;
21564;SDS011;10943;48.738;9.320;2022-10-22T08:28:23;3.42;;;1.30;;
21564;SDS011;10943;48.738;9.320;2022-10-22T08:30:51;4.07;;;1.15;;
21564;SDS011;10943;48.738;9.320;2022-10-22T08:33:19;3.95;;;1.10;;
21564;SDS011;10943;48.738;9.320;2022-10-22T08:35:48;3.92;;;0.90;;
21564;SDS011;10943;48.738;9.320;2022-10-22T08:38:17;3.88;;;0.90;;
21564;SDS011;10943;48.738;9.320;2022-10-22T08:41:15;5.60;;;1.00;;
21564;SDS011;10943;48.738;9.320;2022-10-22T08:46:56;4.60;;;1.67;;
21564;SDS011;10943;48.738;9.320;2022-10-22T08:50:37;3.95;;;1.00;;
21564;SDS011;10943;48.738;9.320;2022-10-22T08:53:21;5.95;;;1.10;;
21564;SDS011;10943;48.738;9.320;2022-10-22T08:56:21;4.95;;;1.00;;
21564;SDS011;10943;48.738;9.320;2022-10-22T08:58:52;2.95;;;0.90;;
21564;SDS011;10943;48.738;9.320;2022-10-22T09:01:58;3.03;;;1.05;;
21564;SDS011;10943;48.738;9.320;2022-10-22T09:04:38;6.47;;;1.70;;
21564;SDS011;10943;48.738;9.320;2022-10-22T09:07:18;2.78;;;0.98;;
21564;SDS011;10943;48.738;9.320;2022-10-22T09:09:46;2.60;;;0.70;;
21564;SDS011;10943;48.738;9.320;2022-10-22T09:12:23;3.05;;;0.95;;
21564;SDS011;10943;48.738;9.320;2022-10-22T09:14:53;4.72;;;0.90;;
21564;SDS011;10943;48.738;9.320;2022-10-22T09:17:35;3.13;;;0.73;;
21564;SDS011;10943;48.738;9.320;2022-10-22T09:20:58;5.15;;;0.80;;
21564;SDS011;10943;48.738;9.320;2022-10-22T09:23:37;3.53;;;0.73;;
21564;SDS011;10943;48.738;9.320;2022-10-22T09:26:22;3.75;;;0.70;;
21564;SDS011;10943;48.738;9.320;2022-10-22T09:28:53;2.05;;;0.70;;
21564;SDS011;10943;48.738;9.320;2022-10-22T09:31:26;4.88;;;1.20;;
21564;SDS011;10943;48.738;9.320;2022-10-22T09:33:57;2.92;;;0.73;;
21564;SDS011;10943;48.738;9.320;2022-10-22T09:36:31;3.38;;;0.70;;
21564;SDS011;10943;48.738;9.320;2022-10-22T09:39:00;5.60;;;0.80;;
21564;SDS011;10943;48.738;9.320;2022-10-22T09:41:29;4.20;;;0.80;;
21564;SDS011;10943;48.738;9.320;2022-10-22T09:43:57;4.25;;;0.80;;
21564;SDS011;10943;48.738;9.320;2022-10-22T09:46:28;4.53;;;0.90;;
21564;SDS011;10943;48.738;9.320;2022-10-22T09:49:29;2.83;;;0.70;;
21564;SDS011;10943;48.738;9.320;2022-10-22T09:52:03;3.47;;;0.90;;
21564;SDS011;10943;48.738;9.320;2022-10-22T09:54:54;3.95;;;0.70;;
21564;SDS011;10943;48.738;9.320;2022-10-22T09:57:22;3.65;;;0.80;;
21564;SDS011;10943;48.738;9.320;2022-10-22T09:59:53;6.70;;;0.95;;
21564;SDS011;10943;48.738;9.320;2022-10-22T10:02:25;2.40;;;0.80;;
21564;SDS011;10943;48.738;9.320;2022-10-22T10:05:16;2.42;;;0.60;;
21564;SDS011;10943;48.738;9.320;2022-10-22T10:07:54;7.30;;;1.10;;
21564;SDS011;10943;48.738;9.320;2022-10-22T10:10:40;2.75;;;0.70;;
21564;SDS011;10943;48.738;9.320;2022-10-22T10:27:52;3.95;;;0.68;;
21564;SDS011;10943;48.738;9.320;2022-10-22T10:30:35;2.45;;;0.70;;
21564;SDS011;10943;48.738;9.320;2022-10-22T10:36:16;3.45;;;0.70;;
21564;SDS011;10943;48.738;9.320;2022-10-22T10:39:29;2.13;;;0.60;;
21564;SDS011;10943;48.738;9.320;2022-10-22T10:42:40;4.78;;;1.00;;
21564;SDS011;10943;48.738;9.320;2022-10-22T10:45:31;3.28;;;0.70;;
21564;SDS011;10943;48.738;9.320;2022-10-22T10:48:28;3.40;;;0.77;;
21564;SDS011;10943;48.738;9.320;2022-10-22T10:57:33;1.58;;;0.45;;
21564;SDS011;10943;48.738;9.320;2022-10-22T11:00:25;3.78;;;0.85;;
21564;SDS011;10943;48.738;9.320;2022-10-22T11:06:24;3.85;;;0.80;;
21564;SDS011;10943;48.738;9.320;2022-10-22T11:08:56;2.47;;;0.50;;
21564;SDS011;10943;48.738;9.320;2022-10-22T11:17:10;6.40;;;1.00;;
21564;SDS011;10943;48.738;9.320;2022-10-22T11:22:54;4.35;;;0.75;;
21564;SDS011;10943;48.738;9.320;2022-10-22T11:25:50;2.78;;;0.70;;
21564;SDS011;10943;48.738;9.320;2022-10-22T11:28:38;7.07;;;0.77;;
21564;SDS011;10943;48.738;9.320;2022-10-22T11:31:14;4.25;;;1.00;;
21564;SDS011;10943;48.738;9.320;2022-10-22T11:33:52;5.38;;;1.00;;
21564;SDS011;10943;48.738;9.320;2022-10-22T11:36:52;2.97;;;1.20;;
21564;SDS011;10943;48.738;9.320;2022-10-22T11:42:18;3.97;;;0.95;;
21564;SDS011;10943;48.738;9.320;2022-10-22T11:45:00;2.70;;;0.80;;
21564;SDS011;10943;48.738;9.320;2022-10-22T11:48:05;3.40;;;0.98;;
21564;SDS011;10943;48.738;9.320;2022-10-22T11:53:17;3.47;;;0.80;;
21564;SDS011;10943;48.738;9.320;2022-10-22T11:55:57;4.25;;;0.90;;
21564;SDS011;10943;48.738;9.320;2022-10-22T11:58:39;5.43;;;1.00;;
21564;SDS011;10943;48.738;9.320;2022-10-22T12:03:47;4.28;;;0.70;;
21564;SDS011;10943;48.738;9.320;2022-10-22T12:06:24;3.78;;;0.75;;
21564;SDS011;10943;48.738;9.320;2022-10-22T12:08:58;2.40;;;0.77;;
21564;SDS011;10943;48.738;9.320;2022-10-22T12:16:56;4.13;;;0.85;;
21564;SDS011;10943;48.738;9.320;2022-10-22T12:19:37;4.78;;;0.88;;
21564;SDS011;10943;48.738;9.320;2022-10-22T12:22:22;4.00;;;1.10;;
21564;SDS011;10943;48.738;9.320;2022-10-22T12:25:08;4.25;;;1.60;;
21564;SDS011;10943;48.738;9.320;2022-10-22T12:28:02;3.85;;;1.48;;
21564;SDS011;10943;48.738;9.320;2022-10-22T12:30:33;5.50;;;1.48;;
21564;SDS011;10943;48.738;9.320;2022-10-22T12:33:05;6.07;;;1.92;;
21564;SDS011;10943;48.738;9.320;2022-10-22T12:35:48;8.82;;;1.95;;
21564;SDS011;10943;48.738;9.320;2022-10-22T12:38:21;14.82;;;2.70;;
21564;SDS011;10943;48.738;9.320;2022-10-22T12:40:54;4.90;;;1.40;;
21564;SDS011;10943;48.738;9.320;2022-10-22T12:43:24;5.45;;;2.08;;
21564;SDS011;10943;48.738;9.320;2022-10-22T12:45:55;6.60;;;2.03;;
21564;SDS011;10943;48.738;9.320;2022-10-22T12:48:31;7.15;;;1.63;;
21564;SDS011;10943;48.738;9.320;2022-10-22T12:51:04;5.03;;;2.53;;
21564;SDS011;10943;48.738;9.320;2022-10-22T12:53:35;5.93;;;2.20;;
21564;SDS011;10943;48.738;9.320;2022-10-22T12:56:10;3.92;;;0.95;;
21564;SDS011;10943;48.738;9.320;2022-10-22T13:01:48;4.10;;;1.42;;
21564;SDS011;10943;48.738;9.320;2022-10-22T13:04:19;4.82;;;0.95;;
21564;SDS011;10943;48.738;9.320;2022-10-22T13:07:04;5.15;;;1.05;;
21564;SDS011;10943;48.738;9.320;2022-10-22T13:09:56;5.65;;;1.10;;
21564;SDS011;10943;48.738;9.320;2022-10-22T13:12:26;4.72;;;1.92;;
21564;SDS011;10943;48.738;9.320;2022-10-22T13:18:01;5.00;;;1.20;;
21564;SDS011;10943;48.738;9.320;2022-10-22T13:20:58;5.32;;;1.73;;
21564;SDS011;10943;48.738;9.320;2022-10-22T13:23:29;6.13;;;1.63;;
21564;SDS011;10943;48.738;9.320;2022-10-22T13:28:29;3.38;;;1.08;;
21564;SDS011;10943;48.738;9.320;2022-10-22T13:30:59;5.47;;;1.50;;
21564;SDS011;10943;48.738;9.320;2022-10-22T13:33:43;4.53;;;2.10;;
21564;SDS011;10943;48.738;9.320;2022-10-22T13:36:18;3.72;;;1.17;;
21564;SDS011;10943;48.738;9.320;2022-10-22T13:38:45;4.20;;;1.00;;
21564;SDS011;10943;48.738;9.320;2022-10-22T13:41:23;3.25;;;0.50;;
21564;SDS011;10943;48.738;9.320;2022-10-22T13:43:57;3.92;;;1.63;;
21564;SDS011;10943;48.738;9.320;2022-10-22T13:46:25;3.28;;;0.98;;
21564;SDS011;10943;48.738;9.320;2022-10-22T13:48:53;4.65;;;0.90;;
21564;SDS011;10943;48.738;9.320;2022-10-22T13:51:23;9.60;;;1.25;;
21564;SDS011;10943;48.738;9.320;2022-10-22T13:54:00;4.95;;;0.80;;
21564;SDS011;10943;48.738;9.320;2022-10-22T13:56:34;5.18;;;0.80;;
21564;SDS011;10943;48.738;9.320;2022-10-22T13:59:02;6.05;;;1.70;;
21564;SDS011;10943;48.738;9.320;2022-10-22T14:01:29;5.22;;;2.53;;
21564;SDS011;10943;48.738;9.320;2022-10-22T14:03:57;5.25;;;1.10;;
21564;SDS011;10943;48.738;9.320;2022-10-22T14:06:29;4.60;;;1.08;;
21564;SDS011;10943;48.738;9.320;2022-10-22T14:08:59;5.05;;;1.13;;
21564;SDS011;10943;48.738;9.320;2022-10-22T14:11:34;5.82;;;0.90;;
21564;SDS011;10943;48.738;9.320;2022-10-22T14:14:01;6.63;;;1.00;;
21564;SDS011;10943;48.738;9.320;2022-10-22T14:16:30;3.53;;;1.35;;
21564;SDS011;10943;48.738;9.320;2022-10-22T14:18:58;5.43;;;1.33;;
21564;SDS011;10943;48.738;9.320;2022-10-22T14:21:32;2.28;;;0.70;;
21564;SDS011;10943;48.738;9.320;2022-10-22T14:24:03;6.38;;;1.60;;
21564;SDS011;10943;48.738;9.320;2022-10-22T14:26:36;7.22;;;1.35;;
21564;SDS011;10943;48.738;9.320;2022-10-22T14:29:03;4.03;;;1.30;;
21564;SDS011;10943;48.738;9.320;2022-10-22T14:31:36;6.40;;;1.15;;
21564;SDS011;10943;48.738;9.320;2022-10-22T14:34:11;5.03;;;1.30;;
21564;SDS011;10943;48.738;9.320;2022-10-22T14:36:41;3.67;;;1.30;;
21564;SDS011;10943;48.738;9.320;2022-10-22T14:39:10;5.20;;;0.88;;
21564;SDS011;10943;48.738;9.320;2022-10-22T14:41:39;5.38;;;1.13;;
21564;SDS011;10943;48.738;9.320;2022-10-22T14:44:09;4.20;;;1.30;;
21564;SDS011;10943;48.738;9.320;2022-10-22T14:46:39;5.10;;;1.60;;
21564;SDS011;10943;48.738;9.320;2022-10-22T14:49:09;3.53;;;0.95;;
21564;SDS011;10943;48.738;9.320;2022-10-22T14:51:36;3.88;;;0.85;;
21564;SDS011;10943;48.738;9.320;2022-10-22T14:54:03;4.97;;;1.70;;
21564;SDS011;10943;48.738;9.320;2022-10-22T14:56:31;5.18;;;1.15;;
21564;SDS011;10943;48.738;9.320;2022-10-22T14:58:59;5.20;;;1.30;;
21564;SDS011;10943;48.738;9.320;2022-10-22T15:01:26;6.25;;;1.30;;
21564;SDS011;10943;48.738;9.320;2022-10-22T15:03:53;4.03;;;1.10;;
21564;SDS011;10943;48.738;9.320;2022-10-22T15:06:21;4.90;;;0.98;;
21564;SDS011;10943;48.738;9.320;2022-10-22T15:08:48;5.93;;;1.13;;
21564;SDS011;10943;48.738;9.320;2022-10-22T15:11:16;11.50;;;2.63;;
21564;SDS011;10943;48.738;9.320;2022-10-22T15:13:43;6.57;;;2.08;;
21564;SDS011;10943;48.738;9.320;2022-10-22T15:16:11;6.97;;;2.45;;
21564;SDS011;10943;48.738;9.320;2022-10-22T15:18:41;7.55;;;3.42;;
21564;SDS011;10943;48.738;9.320;2022-10-22T15:21:13;8.30;;;3.08;;
21564;SDS011;10943;48.738;9.320;2022-10-22T15:23:45;9.25;;;3.30;;
21564;SDS011;10943;48.738;9.320;2022-10-22T15:26:13;8.95;;;3.45;;
21564;SDS011;10943;48.738;9.320;2022-10-22T15:28:41;7.85;;;4.28;;
21564;SDS011;10943;48.738;9.320;2022-10-22T15:31:11;11.05;;;5.55;;
21564;SDS011;10943;48.738;9.320;2022-10-22T15:33:41;10.55;;;5.03;;
21564;SDS011;10943;48.738;9.320;2022-10-22T15:36:10;9.68;;;4.95;;
21564;SDS011;10943;48.738;9.320;2022-10-22T15:38:41;13.18;;;5.90;;
21564;SDS011;10943;48.738;9.320;2022-10-22T15:41:09;10.55;;;4.50;;
21564;SDS011;10943;48.738;9.320;2022-10-22T15:43:38;12.43;;;4.82;;
21564;SDS011;10943;48.738;9.320;2022-10-22T15:48:45;11.07;;;5.20;;
21564;SDS011;10943;48.738;9.320;2022-10-22T15:51:13;10.85;;;4.82;;
21564;SDS011;10943;48.738;9.320;2022-10-22T15:53:55;10.13;;;4.10;;
21564;SDS011;10943;48.738;9.320;2022-10-22T15:56:26;10.50;;;4.60;;
21564;SDS011;10943;48.738;9.320;2022-10-22T15:58:56;15.13;;;5.15;;
21564;SDS011;10943;48.738;9.320;2022-10-22T16:01:30;8.57;;;4.20;;
21564;SDS011;10943;48.738;9.320;2022-10-22T16:04:00;9.65;;;4.53;;
21564;SDS011;10943;48.738;9.320;2022-10-22T16:06:31;10.52;;;5.20;;
21564;SDS011;10943;48.738;9.320;2022-10-22T16:09:07;10.50;;;4.13;;
21564;SDS011;10943;48.738;9.320;2022-10-22T16:11:41;11.18;;;4.53;;
21564;SDS011;10943;48.738;9.320;2022-10-22T16:14:11;14.77;;;4.88;;
21564;SDS011;10943;48.738;9.320;2022-10-22T16:16:42;13.85;;;5.70;;
21564;SDS011;10943;48.738;9.320;2022-10-22T16:19:15;18.77;;;8.27;;
21564;SDS011;10943;48.738;9.320;2022-10-22T16:21:49;11.82;;;6.13;;
21564;SDS011;10943;48.738;9.320;2022-10-22T16:24:20;12.30;;;5.65;;
21564;SDS011;10943;48.738;9.320;2022-10-22T16:26:49;14.85;;;6.10;;
21564;SDS011;10943;48.738;9.320;2022-10-22T16:29:18;12.50;;;5.60;;
21564;SDS011;10943;48.738;9.320;2022-10-22T16:31:45;9.90;;;4.10;;
21564;SDS011;10943;48.738;9.320;2022-10-22T16:34:13;8.70;;;3.30;;
21564;SDS011;10943;48.738;9.320;2022-10-22T16:36:40;7.68;;;2.95;;
21564;SDS011;10943;48.738;9.320;2022-10-22T16:39:12;8.43;;;3.60;;
21564;SDS011;10943;48.738;9.320;2022-10-22T16:41:39;6.50;;;2.67;;
21564;SDS011;10943;48.738;9.320;2022-10-22T16:44:06;9.65;;;2.28;;
21564;SDS011;10943;48.738;9.320;2022-10-22T16:46:35;8.07;;;2.40;;
21564;SDS011;10943;48.738;9.320;2022-10-22T16:49:04;6.63;;;2.70;;
21564;SDS011;10943;48.738;9.320;2022-10-22T16:51:33;12.65;;;4.40;;
21564;SDS011;10943;48.738;9.320;2022-10-22T16:54:01;19.88;;;9.10;;
21564;SDS011;10943;48.738;9.320;2022-10-22T16:56:33;12.07;;;4.85;;
21564;SDS011;10943;48.738;9.320;2022-10-22T16:59:03;10.88;;;4.22;;
21564;SDS011;10943;48.738;9.320;2022-10-22T17:01:31;12.98;;;4.78;;
21564;SDS011;10943;48.738;9.320;2022-10-22T17:04:05;12.65;;;4.22;;
21564;SDS011;10943;48.738;9.320;2022-10-22T17:06:34;8.25;;;4.20;;